Terminal Aerodrome Forecast
Issued by NWS Cleveland, OH

Home | Current Version | Previous Version | Graphics & Text | Print | Product List | Glossary Off
Versions: 1 2 3 4 5 6 7 8 9 10 11 12 13 14 15 16 17 18 19 20 21 22 23 24 25 26 27 28 29 30 31 32 33 34 35 36 37 38 39 40 41 42

000
FTUS41 KCLE 052000 AAD
TAFCLE
TAF AMD
KCLE 052037Z 0521/0624 36011KT 4SM HZ VCSH OVC002
     FM060100 04006KT 4SM -SHRA BR SCT012 OVC025
     FM060800 15004KT 2SM BR OVC012
     FM061400 30004KT 5SM HZ SCT020 BKN045
     FM061600 32005KT P6SM BKN100=

USA.gov is the U.S. government's official web portal to all federal, state and local government web resources and services.